createdAt,value
2023-02-06T00:01:27.984Z,33.50
2023-02-06T00:06:32.339Z,34.25
2023-02-06T00:11:36.849Z,35.25
2023-02-06T00:16:41.016Z,34.00
2023-02-06T00:21:45.208Z,33.25
2023-02-06T00:26:49.411Z,32.00
2023-02-06T00:31:53.733Z,29.50
2023-02-06T00:36:58.095Z,30.75
2023-02-06T00:42:02.663Z,29.00
2023-02-06T00:47:06.776Z,30.25
2023-02-06T00:52:10.892Z,32.00
2023-02-06T00:57:15.592Z,30.75
2023-02-06T01:02:19.768Z,30.75
2023-02-06T01:07:24.067Z,30.00
2023-02-06T01:12:28.605Z,31.00
2023-02-06T01:17:34.067Z,34.00
2023-02-06T01:22:38.724Z,33.50
2023-02-06T01:27:42.997Z,35.25
2023-02-06T01:32:47.134Z,37.25
2023-02-06T01:37:52.684Z,36.25
2023-02-06T01:42:56.928Z,38.75
2023-02-06T01:48:04.672Z,35.25
2023-02-06T01:53:09.641Z,37.50
2023-02-06T01:58:16.450Z,34.75
2023-02-06T02:03:20.981Z,34.00
2023-02-06T02:08:29.635Z,33.75
2023-02-06T02:13:33.862Z,33.00
2023-02-06T02:18:56.834Z,34.00
2023-02-06T02:24:19.107Z,35.75
2023-02-06T02:29:26.034Z,38.25
2023-02-06T02:34:36.414Z,35.75
2023-02-06T02:39:47.803Z,40.50
2023-02-06T02:44:53.440Z,41.25
2023-02-06T02:49:58.053Z,41.25
2023-02-06T02:55:02.115Z,44.00
2023-02-06T03:00:06.445Z,46.75
2023-02-06T03:05:12.827Z,45.00
2023-02-06T03:10:32.696Z,49.67
2023-02-06T03:15:54.932Z,45.50
2023-02-06T03:21:01.716Z,41.00
2023-02-06T03:26:08.331Z,54.33
2023-02-06T03:31:16.209Z,56.33
2023-02-06T03:36:21.432Z,63.33
2023-02-06T03:41:31.386Z,58.67
2023-02-06T03:46:37.563Z,50.67
2023-02-06T03:51:55.578Z,48.67
2023-02-06T03:57:02.095Z,50.67
2023-02-06T04:02:08.070Z,49.00
2023-02-06T04:07:32.284Z,48.25
2023-02-06T04:12:36.775Z,39.75
2023-02-06T04:17:57.513Z,44.75
2023-02-06T04:23:04.232Z,41.75
2023-02-06T04:28:08.895Z,42.25
2023-02-06T04:33:13.372Z,43.00
2023-02-06T04:38:18.413Z,43.50
2023-02-06T04:43:22.923Z,39.75
2023-02-06T04:48:27.497Z,44.50
2023-02-06T04:53:32.327Z,46.25
2023-02-06T04:58:36.998Z,44.75
2023-02-06T05:03:41.872Z,44.25
2023-02-06T05:08:46.141Z,46.00
2023-02-06T05:13:51.191Z,47.25
2023-02-06T05:18:56.920Z,44.25
2023-02-06T05:24:01.837Z,46.25
2023-02-06T05:29:06.640Z,41.00
2023-02-06T05:34:12.123Z,49.00
2023-02-06T05:39:17.187Z,44.50
2023-02-06T05:44:22.242Z,47.00
2023-02-06T05:49:27.195Z,52.00
2023-02-06T05:54:32.971Z,43.75
2023-02-06T05:59:43.434Z,46.25
2023-02-06T06:04:48.325Z,42.75
2023-02-06T06:09:52.741Z,42.25
2023-02-06T06:14:57.696Z,42.00
2023-02-06T06:20:02.738Z,41.00
2023-02-06T06:25:08.519Z,43.75
2023-02-06T06:30:14.142Z,40.50
2023-02-06T06:35:19.440Z,37.25
2023-02-06T06:40:24.701Z,37.00
2023-02-06T06:45:29.803Z,39.00
2023-02-06T06:50:35.172Z,35.00
2023-02-06T06:55:40.107Z,38.00
2023-02-06T07:00:46.336Z,36.75
2023-02-06T07:05:53.145Z,36.00
2023-02-06T07:10:59.154Z,34.75
2023-02-06T07:16:06.656Z,35.25
2023-02-06T07:21:12.256Z,35.50
2023-02-06T07:26:17.429Z,34.25
2023-02-06T07:31:22.712Z,38.75
2023-02-06T07:36:28.017Z,36.00
2023-02-06T07:41:34.098Z,35.00
2023-02-06T07:46:38.756Z,35.00
2023-02-06T07:51:44.056Z,35.25
2023-02-06T07:56:48.936Z,35.00
2023-02-06T08:01:54.266Z,36.50
2023-02-06T08:06:59.035Z,36.00
2023-02-06T08:12:03.686Z,35.25
2023-02-06T08:17:09.308Z,35.50
2023-02-06T08:22:14.230Z,34.75
2023-02-06T08:27:19.349Z,34.25
2023-02-06T08:32:23.949Z,34.00
2023-02-06T08:37:28.898Z,33.75
2023-02-06T08:42:33.632Z,33.00
2023-02-06T08:47:38.151Z,34.75
2023-02-06T08:52:42.612Z,35.00
2023-02-06T08:57:47.478Z,35.75
2023-02-06T09:02:55.294Z,34.75
2023-02-06T09:08:00.623Z,34.00
2023-02-06T09:13:05.433Z,34.00
2023-02-06T09:18:09.733Z,34.75
2023-02-06T09:23:14.344Z,34.00
2023-02-06T09:28:19.460Z,34.25
2023-02-06T09:33:24.134Z,33.25
2023-02-06T09:38:29.151Z,35.25
2023-02-06T09:43:34.852Z,33.75
2023-02-06T09:48:41.159Z,33.25
2023-02-06T09:54:06.788Z,35.75
2023-02-06T09:59:18.490Z,33.75
2023-02-06T10:04:35.132Z,33.25
2023-02-06T10:09:49.061Z,29.25
2023-02-06T10:14:58.246Z,28.25
2023-02-06T10:20:09.146Z,30.00
2023-02-06T10:25:13.874Z,30.00
2023-02-06T10:30:20.383Z,28.50
2023-02-06T10:35:33.989Z,29.50
2023-02-06T10:40:48.361Z,29.25
2023-02-06T10:45:52.785Z,28.75
2023-02-06T10:50:57.010Z,28.25
2023-02-06T10:56:07.176Z,29.75
2023-02-06T11:01:25.620Z,29.25
2023-02-06T11:06:31.716Z,28.50
2023-02-06T11:11:43.506Z,29.25
2023-02-06T11:16:48.851Z,30.00
2023-02-06T11:21:55.364Z,28.75
2023-02-06T11:27:01.196Z,27.50
2023-02-06T11:32:09.839Z,29.00
2023-02-06T11:37:34.267Z,28.00
2023-02-06T11:42:39.517Z,28.00
2023-02-06T11:47:43.679Z,28.00
2023-02-06T11:52:48.897Z,31.00
2023-02-06T11:58:11.119Z,33.50
2023-02-06T12:03:45.208Z,30.75
2023-02-06T12:08:55.158Z,31.00
2023-02-06T12:14:09.243Z,29.25
2023-02-06T12:19:18.686Z,30.75
2023-02-06T12:24:25.393Z,30.75
2023-02-06T12:29:43.987Z,33.75
2023-02-06T12:34:57.745Z,33.00
2023-02-06T12:40:03.800Z,32.25
2023-02-06T12:45:26.705Z,31.75
2023-02-06T12:50:38.717Z,31.25
2023-02-06T12:56:02.740Z,31.00
2023-02-06T13:01:25.894Z,29.00
2023-02-06T13:06:45.117Z,29.75
2023-02-06T13:11:51.629Z,32.00
2023-02-06T13:16:57.921Z,32.75
2023-02-06T13:22:10.317Z,32.75
2023-02-06T13:27:21.367Z,34.00
2023-02-06T13:32:26.503Z,34.00
2023-02-06T13:37:39.458Z,34.00
2023-02-06T13:43:04.473Z,33.25
2023-02-06T13:48:09.294Z,35.00
2023-02-06T13:53:33.227Z,34.00
2023-02-06T13:58:42.877Z,34.00
2023-02-06T14:03:50.534Z,37.00
2023-02-06T14:08:54.917Z,37.00
2023-02-06T14:14:28.941Z,36.50
2023-02-06T14:19:36.088Z,39.00
2023-02-06T14:25:06.565Z,37.75
2023-02-06T14:30:20.176Z,35.25
2023-02-06T14:35:45.931Z,34.00
2023-02-06T14:40:55.343Z,36.00
2023-02-06T14:46:07.632Z,35.00
2023-02-06T14:51:31.584Z,35.00
2023-02-06T14:56:38.243Z,35.00
2023-02-06T15:01:43.300Z,39.50
2023-02-06T15:06:56.663Z,38.75
2023-02-06T15:12:05.116Z,36.00
2023-02-06T15:17:20.275Z,36.50
2023-02-06T15:22:30.498Z,37.50
2023-02-06T15:27:36.608Z,35.50
2023-02-06T15:32:42.217Z,35.50
2023-02-06T15:37:49.146Z,37.00
2023-02-06T15:42:54.310Z,39.00
2023-02-06T15:48:03.204Z,38.50
2023-02-06T15:53:21.920Z,35.25
2023-02-06T15:58:27.794Z,38.25
2023-02-06T16:03:36.930Z,41.00
2023-02-06T16:08:44.741Z,37.00
2023-02-06T16:13:51.553Z,38.75
2023-02-06T16:19:00.227Z,34.00
2023-02-06T16:24:08.420Z,38.75
2023-02-06T16:29:13.434Z,36.25
2023-02-06T16:34:23.000Z,39.00
2023-02-06T16:39:27.927Z,37.00
2023-02-06T16:44:44.395Z,37.50
2023-02-06T16:49:49.995Z,37.75
2023-02-06T16:54:59.846Z,36.75
2023-02-06T17:00:06.648Z,38.75
2023-02-06T17:05:11.409Z,40.00
2023-02-06T17:10:16.064Z,39.25
2023-02-06T17:15:20.714Z,39.25
2023-02-06T17:20:39.402Z,37.50
2023-02-06T17:25:45.211Z,35.50
2023-02-06T17:30:52.097Z,37.00
2023-02-06T17:35:56.821Z,38.50
2023-02-06T17:41:01.460Z,38.25
2023-02-06T17:46:06.365Z,35.00
2023-02-06T17:51:11.086Z,36.50
2023-02-06T17:56:15.703Z,36.50
2023-02-06T18:01:21.619Z,34.50
2023-02-06T18:06:26.558Z,34.00
2023-02-06T18:11:31.167Z,35.25
2023-02-06T18:16:35.836Z,37.25
2023-02-06T18:21:40.383Z,35.75
2023-02-06T18:26:45.040Z,34.50
2023-02-06T18:31:49.646Z,34.25
2023-02-06T18:36:53.953Z,34.00
2023-02-06T18:42:16.210Z,37.00
2023-02-06T18:47:21.043Z,34.75
2023-02-06T18:52:25.632Z,34.50
2023-02-06T18:57:30.261Z,35.00
2023-02-06T19:02:35.082Z,34.75
2023-02-06T19:07:39.596Z,34.00
2023-02-06T19:13:01.903Z,35.00
2023-02-06T19:18:10.166Z,33.00
2023-02-06T19:23:14.717Z,33.00
2023-02-06T19:28:19.490Z,34.00
2023-02-06T19:33:23.983Z,32.75
2023-02-06T19:38:28.585Z,33.00
2023-02-06T19:43:33.266Z,33.50
2023-02-06T19:48:37.512Z,33.00
2023-02-06T19:53:46.825Z,32.25
2023-02-06T19:59:01.189Z,32.75
2023-02-06T20:04:05.693Z,31.75
2023-02-06T20:09:10.192Z,33.00
2023-02-06T20:14:14.699Z,31.00
2023-02-06T20:19:29.758Z,33.00
2023-02-06T20:24:34.337Z,33.00
2023-02-06T20:29:44.453Z,34.00
2023-02-06T20:34:48.970Z,32.50
2023-02-06T20:39:53.462Z,31.25
2023-02-06T20:44:57.797Z,31.00
2023-02-06T20:50:03.130Z,31.25
2023-02-06T20:55:08.892Z,31.00
2023-02-06T21:00:14.397Z,31.50
2023-02-06T21:05:19.845Z,32.25
2023-02-06T21:10:24.198Z,33.00
2023-02-06T21:15:28.907Z,31.00
2023-02-06T21:20:33.405Z,30.25
2023-02-06T21:25:41.032Z,29.50
2023-02-06T21:30:45.721Z,30.25
2023-02-06T21:35:51.601Z,30.75
2023-02-06T21:40:56.248Z,30.25
2023-02-06T21:46:00.347Z,31.00
2023-02-06T21:51:11.548Z,29.00
2023-02-06T21:56:18.167Z,29.00
2023-02-06T22:01:30.019Z,28.75
2023-02-06T22:06:38.227Z,28.00
2023-02-06T22:11:43.138Z,28.00
2023-02-06T22:16:48.111Z,29.25
2023-02-06T22:21:52.633Z,28.75
2023-02-06T22:26:57.245Z,26.50
2023-02-06T22:32:05.877Z,26.50
2023-02-06T22:37:10.658Z,25.25
2023-02-06T22:42:15.162Z,25.75
2023-02-06T22:47:19.684Z,26.00
2023-02-06T22:52:43.790Z,25.25
2023-02-06T22:57:49.781Z,24.00
2023-02-06T23:02:54.408Z,25.25
2023-02-06T23:07:58.940Z,23.50
2023-02-06T23:13:03.702Z,20.75
2023-02-06T23:18:08.504Z,21.75
2023-02-06T23:23:13.174Z,22.50
2023-02-06T23:28:17.810Z,19.50
2023-02-06T23:33:22.599Z,19.50
2023-02-06T23:38:27.085Z,19.50
2023-02-06T23:43:31.614Z,20.75
2023-02-06T23:48:36.625Z,19.25
2023-02-06T23:53:41.189Z,20.50
2023-02-06T23:58:45.812Z,19.50
